Time;durP1;ratioP1;P1;durP2;ratioP2;P2;SDS_P1;SDS_P2;PMS_P1;PMS_P2;Temp;Humidity;BMP_temperature;BMP_pressure;BME280_temperature;BME280_humidity;BME280_pressure;Samples;Min_cycle;Max_cycle;Signal;HPM_P1;HPM_P2
2021/12/17 00:07:23;;;;;;;26.37;19.00;;;9.00;99.90;;;;;;10355042;28;20224;-73
2021/12/17 00:12:27;;;;;;;25.43;17.83;;;9.00;99.90;;;;;;10354174;28;20233;-73
2021/12/17 00:17:33;;;;;;;32.50;20.97;;;9.00;99.90;;;;;;10359274;28;20246;-73
2021/12/17 00:48:52;;;;;;;31.50;20.97;;;9.00;99.90;;;;;;10351175;28;20591;-72
2021/12/17 00:53:56;;;;;;;34.27;22.13;;;9.00;99.90;;;;;;10354410;28;20704;-72
2021/12/17 00:58:57;;;;;;;30.67;20.87;;;8.90;99.90;;;;;;10365711;28;20623;-72
2021/12/17 01:03:58;;;;;;;36.00;20.63;;;8.90;99.90;;;;;;10346518;28;20238;-72
2021/12/17 01:08:59;;;;;;;30.57;21.00;;;8.90;99.90;;;;;;10354881;28;20273;-72
2021/12/17 01:13:59;;;;;;;34.90;19.97;;;8.90;99.90;;;;;;10352119;28;20243;-71
2021/12/17 01:24:30;;;;;;;31.63;21.37;;;8.90;99.90;;;;;;10349129;28;20315;-73
2021/12/17 01:45:10;;;;;;;30.73;20.20;;;8.90;99.90;;;;;;10351448;28;20680;-72
2021/12/17 01:56:49;;;;;;;30.30;20.20;;;9.00;99.90;;;;;;10348436;28;20682;-71
2021/12/17 02:01:04;;;;;;;29.40;19.50;;;9.00;99.90;;;;;;10333860;28;20265;-71
2021/12/17 02:06:11;;;;;;;24.73;17.83;;;9.00;99.90;;;;;;10348038;28;20251;-72
2021/12/17 02:23:11;;;;;;;28.80;20.03;;;9.00;99.90;;;;;;10321151;28;20234;-72
2021/12/17 02:33:18;;;;;;;26.27;18.37;;;9.00;99.90;;;;;;10344635;28;20231;-72
2021/12/17 02:38:21;;;;;;;24.07;17.87;;;9.00;99.90;;;;;;10354624;28;20223;-71
2021/12/17 02:48:23;;;;;;;23.63;17.80;;;9.10;99.90;;;;;;10347063;28;20219;-72
2021/12/17 02:53:27;;;;;;;26.70;19.03;;;9.10;99.90;;;;;;10344504;28;20231;-73
2021/12/17 02:58:30;;;;;;;22.63;17.03;;;9.10;99.90;;;;;;10346105;28;20231;-72
2021/12/17 03:03:33;;;;;;;27.10;18.73;;;9.10;99.90;;;;;;10352709;28;20211;-72
2021/12/17 03:08:34;;;;;;;30.20;18.53;;;9.00;99.90;;;;;;10345890;28;20308;-72
2021/12/17 03:13:38;;;;;;;24.83;17.67;;;9.00;99.90;;;;;;10345796;28;20310;-72
2021/12/17 03:23:54;;;;;;;27.33;18.97;;;9.00;99.90;;;;;;10349415;28;20225;-72
2021/12/17 03:29:02;;;;;;;28.50;19.23;;;9.00;99.90;;;;;;10349573;28;20206;-72
2021/12/17 03:34:21;;;;;;;27.20;18.43;;;9.00;99.90;;;;;;10356495;28;20215;-71
2021/12/17 03:39:25;;;;;;;24.73;17.60;;;8.90;99.90;;;;;;10343138;28;20221;-71
2021/12/17 03:44:30;;;;;;;28.57;18.23;;;8.90;99.90;;;;;;10346580;28;20224;-72
2021/12/17 03:49:32;;;;;;;25.20;16.50;;;8.90;99.90;;;;;;10343949;28;20227;-72
2021/12/17 03:54:37;;;;;;;24.43;16.17;;;8.90;99.90;;;;;;10351333;28;20232;-73
2021/12/17 03:59:38;;;;;;;24.77;16.23;;;8.80;99.90;;;;;;10344816;28;20230;-73
2021/12/17 04:04:38;;;;;;;19.90;14.30;;;8.80;99.90;;;;;;10349834;28;20235;-73
2021/12/17 04:09:39;;;;;;;20.80;14.37;;;8.80;99.90;;;;;;10354626;28;20218;-72
2021/12/17 04:14:48;;;;;;;9.77;7.77;;;8.90;99.90;;;;;;10354190;28;20315;-73
2021/12/17 04:19:48;;;;;;;19.63;13.93;;;8.80;99.90;;;;;;10356718;28;20273;-73
2021/12/17 04:24:49;;;;;;;19.13;14.17;;;8.70;99.90;;;;;;10353684;28;20242;-74
2021/12/17 04:29:51;;;;;;;18.97;14.50;;;8.60;99.90;;;;;;10348626;28;20588;-74
2021/12/17 04:34:54;;;;;;;18.03;14.77;;;8.30;99.90;;;;;;10359802;28;20219;-70
2021/12/17 04:39:55;;;;;;;18.07;13.27;;;8.00;99.90;;;;;;10354752;28;20310;-72
2021/12/17 04:44:58;;;;;;;18.90;14.03;;;7.70;99.90;;;;;;10361084;28;20397;-72
2021/12/17 05:00:39;;;;;;;19.17;13.43;;;7.00;99.90;;;;;;10349909;28;20650;-72
2021/12/17 05:05:40;;;;;;;20.90;14.37;;;6.90;99.90;;;;;;10352245;28;20225;-72
2021/12/17 05:21:10;;;;;;;25.83;15.43;;;6.40;99.90;;;;;;10346655;28;20229;-72
2021/12/17 05:26:14;;;;;;;21.37;15.57;;;6.30;99.90;;;;;;10345708;28;20712;-73
2021/12/17 05:31:16;;;;;;;22.23;16.27;;;6.20;99.90;;;;;;10356257;28;20561;-72
2021/12/17 05:36:18;;;;;;;21.47;15.60;;;6.10;99.90;;;;;;10350830;28;20221;-72
2021/12/17 05:41:18;;;;;;;26.43;16.83;;;6.10;99.90;;;;;;10345785;28;20578;-73
2021/12/17 05:46:24;;;;;;;24.53;16.57;;;6.10;99.90;;;;;;10350171;28;20225;-72
2021/12/17 05:51:24;;;;;;;26.57;16.87;;;6.20;99.90;;;;;;10359045;28;20283;-72
2021/12/17 05:56:25;;;;;;;25.40;17.43;;;6.30;99.90;;;;;;10343353;28;20344;-72
2021/12/17 06:01:25;;;;;;;21.23;15.53;;;6.40;99.90;;;;;;10352768;28;20255;-73
2021/12/17 06:06:27;;;;;;;22.57;15.40;;;6.50;99.90;;;;;;10342921;28;20232;-72
2021/12/17 06:11:27;;;;;;;22.47;15.20;;;6.50;99.90;;;;;;10342907;28;20228;-73
2021/12/17 06:16:28;;;;;;;20.87;15.30;;;6.50;99.90;;;;;;10348296;28;20240;-73
2021/12/17 06:21:28;;;;;;;21.17;14.87;;;6.50;99.90;;;;;;10350907;28;20231;-73
2021/12/17 06:26:33;;;;;;;21.53;15.07;;;6.50;99.90;;;;;;10356450;28;20287;-73
2021/12/17 06:31:33;;;;;;;19.87;14.40;;;6.50;99.90;;;;;;10345882;28;20705;-73
2021/12/17 06:36:34;;;;;;;17.07;13.27;;;6.60;99.90;;;;;;10342926;28;20210;-73
2021/12/17 06:41:35;;;;;;;23.83;14.53;;;6.60;99.90;;;;;;10341475;28;20230;-73
2021/12/17 07:19:04;;;;;;;18.80;14.27;;;6.00;99.90;;;;;;10357961;28;20243;-77
2021/12/17 07:34:08;;;;;;;19.60;14.77;;;5.70;99.90;;;;;;10364363;28;20224;-74
2021/12/17 07:39:09;;;;;;;23.77;14.53;;;5.70;99.90;;;;;;10352187;28;20260;-74
2021/12/17 07:44:10;;;;;;;24.53;15.47;;;5.70;99.90;;;;;;10365149;28;20225;-73
2021/12/17 07:49:11;;;;;;;19.93;14.00;;;5.80;99.90;;;;;;10350063;28;20217;-74
2021/12/17 07:54:12;;;;;;;18.97;14.40;;;6.00;99.90;;;;;;10348335;28;20228;-73
2021/12/17 07:59:13;;;;;;;19.33;13.93;;;6.10;99.90;;;;;;10354466;28;20217;-73
2021/12/17 08:04:14;;;;;;;20.47;12.57;;;6.30;99.90;;;;;;10348680;28;20693;-73
2021/12/17 08:09:19;;;;;;;21.93;13.63;;;6.60;99.90;;;;;;10358047;28;20217;-74
2021/12/17 08:14:20;;;;;;;23.00;13.03;;;6.80;99.90;;;;;;10360458;28;20224;-73
2021/12/17 08:29:51;;;;;;;17.00;11.53;;;7.40;99.90;;;;;;10355896;28;20262;-74
2021/12/17 08:34:51;;;;;;;16.60;12.03;;;7.60;99.90;;;;;;10352253;28;20230;-74
2021/12/17 08:39:52;;;;;;;17.43;12.10;;;7.80;99.90;;;;;;10348267;28;20226;-73
2021/12/17 08:44:53;;;;;;;16.03;10.97;;;7.90;99.90;;;;;;10353595;28;20238;-72
2021/12/17 08:49:54;;;;;;;26.10;12.43;;;8.00;99.90;;;;;;10346090;28;20244;-73
2021/12/17 08:54:54;;;;;;;17.67;12.07;;;8.00;99.90;;;;;;10352270;28;20218;-73
2021/12/17 08:59:57;;;;;;;16.53;11.23;;;8.00;99.90;;;;;;10362648;28;20223;-73
2021/12/17 09:04:58;;;;;;;13.57;10.73;;;8.00;99.90;;;;;;10372835;28;20217;-73
2021/12/17 09:09:59;;;;;;;15.00;9.87;;;8.00;99.90;;;;;;10363664;28;20214;-74
2021/12/17 09:14:59;;;;;;;13.67;10.57;;;8.20;99.90;;;;;;10356465;28;20314;-74
2021/12/17 09:20:00;;;;;;;14.77;10.70;;;8.30;99.90;;;;;;10361790;28;20215;-74
2021/12/17 09:25:02;;;;;;;15.43;10.70;;;8.40;99.90;;;;;;10357551;28;20585;-74
2021/12/17 09:30:09;;;;;;;16.03;11.47;;;8.60;99.90;;;;;;10358981;28;20311;-73
2021/12/17 09:35:11;;;;;;;22.13;11.93;;;8.70;99.90;;;;;;10358456;28;20222;-73
2021/12/17 09:40:13;;;;;;;19.20;12.33;;;8.70;99.90;;;;;;10351723;28;20199;-74
2021/12/17 09:45:15;;;;;;;17.33;11.80;;;8.70;99.90;;;;;;10350209;28;20760;-74
2021/12/17 09:50:20;;;;;;;21.63;13.47;;;8.80;99.90;;;;;;10344216;28;20177;-72
2021/12/17 09:55:21;;;;;;;16.00;11.33;;;9.10;99.90;;;;;;10355033;28;20218;-73
2021/12/17 10:00:26;;;;;;;13.73;9.87;;;9.60;99.90;;;;;;10343343;28;20260;-74
2021/12/17 10:05:35;;;;;;;11.97;8.77;;;11.60;99.90;;;;;;10346901;28;20557;-73
2021/12/17 10:10:41;;;;;;;12.37;7.33;;;13.30;99.90;;;;;;10349177;28;20227;-73
2021/12/17 10:15:46;;;;;;;9.37;7.43;;;12.70;99.90;;;;;;10347138;28;20233;-73
2021/12/17 10:20:59;;;;;;;12.17;8.43;;;12.00;99.90;;;;;;10350190;28;20215;-74
2021/12/17 10:26:01;;;;;;;11.20;7.37;;;12.10;99.90;;;;;;10343406;28;20597;-74
2021/12/17 10:31:01;;;;;;;10.20;8.03;;;12.10;99.90;;;;;;10343813;28;20221;-74
2021/12/17 10:36:03;;;;;;;9.67;7.27;;;11.80;99.90;;;;;;10357072;28;20214;-73
2021/12/17 10:41:12;;;;;;;9.90;7.90;;;12.00;99.90;;;;;;10341450;28;20655;-74
2021/12/17 10:46:31;;;;;;;11.13;7.80;;;11.70;99.90;;;;;;10343746;28;20303;-73
2021/12/17 10:56:42;;;;;;;8.40;7.10;;;10.90;99.90;;;;;;10350088;28;20313;-74
2021/12/17 11:01:47;;;;;;;8.33;7.40;;;10.80;99.90;;;;;;10344176;28;20433;-73
2021/12/17 11:06:58;;;;;;;9.73;7.30;;;10.70;99.90;;;;;;10346989;28;20241;-73
2021/12/17 11:12:02;;;;;;;9.50;7.30;;;10.40;99.90;;;;;;10348881;28;20215;-73
2021/12/17 11:17:02;;;;;;;9.40;8.00;;;10.30;99.90;;;;;;10348766;28;20219;-73
2021/12/17 11:22:06;;;;;;;10.67;7.73;;;10.10;99.90;;;;;;10357405;28;20225;-74
2021/12/17 11:27:07;;;;;;;12.17;8.57;;;10.10;99.90;;;;;;10341934;28;20223;-74
2021/12/17 11:32:11;;;;;;;11.03;8.07;;;9.80;99.90;;;;;;10357118;28;20244;-73
2021/12/17 11:37:16;;;;;;;10.73;8.03;;;9.90;99.90;;;;;;10348953;28;20215;-74
2021/12/17 11:42:29;;;;;;;13.73;9.40;;;9.80;99.90;;;;;;10347981;28;20239;-75
2021/12/17 11:47:34;;;;;;;11.97;8.63;;;9.70;99.90;;;;;;10345711;28;20308;-74
2021/12/17 11:52:35;;;;;;;12.73;8.97;;;9.80;99.90;;;;;;10345274;28;20228;-73
2021/12/17 11:57:42;;;;;;;13.07;9.47;;;9.90;99.90;;;;;;10345559;28;20712;-74
2021/12/17 12:02:50;;;;;;;15.20;9.93;;;10.00;99.90;;;;;;10339887;28;20231;-73
2021/12/17 12:07:50;;;;;;;12.57;9.43;;;10.10;99.90;;;;;;10354751;28;20223;-73
2021/12/17 12:12:51;;;;;;;12.70;9.33;;;10.00;99.90;;;;;;10345655;28;20215;-73
2021/12/17 12:18:02;;;;;;;14.80;9.90;;;10.00;99.90;;;;;;10346679;28;20227;-74
2021/12/17 12:23:27;;;;;;;13.50;9.40;;;10.00;99.90;;;;;;10342873;28;20238;-74
2021/12/17 12:28:49;;;;;;;15.07;10.10;;;10.00;99.90;;;;;;10351372;28;20267;-74
2021/12/17 12:34:08;;;;;;;19.50;10.63;;;10.10;99.90;;;;;;10353201;28;20223;-74
2021/12/17 12:39:26;;;;;;;15.87;9.53;;;10.10;99.90;;;;;;10347419;28;20732;-73
2021/12/17 12:44:42;;;;;;;12.90;10.20;;;10.10;99.90;;;;;;10352564;28;20237;-73
2021/12/17 12:49:48;;;;;;;12.97;9.83;;;10.00;99.90;;;;;;10351136;28;20240;-73
2021/12/17 12:54:50;;;;;;;13.67;10.13;;;9.90;99.90;;;;;;10348736;28;20319;-72
2021/12/17 12:59:53;;;;;;;11.20;8.70;;;9.90;99.90;;;;;;10366087;28;20309;-73
2021/12/17 13:04:55;;;;;;;13.50;9.33;;;9.70;99.90;;;;;;10345113;28;20613;-73
2021/12/17 13:09:56;;;;;;;10.90;8.13;;;9.70;99.90;;;;;;10357407;28;20235;-74
2021/12/17 13:14:57;;;;;;;13.20;8.40;;;9.70;99.90;;;;;;10346977;28;20296;-72
2021/12/17 13:20:41;;;;;;;11.33;8.70;;;9.60;99.90;;;;;;10350414;28;20235;-74
2021/12/17 13:25:37;;;;;;;9.53;7.17;;;9.60;99.90;;;;;;10348284;28;20639;-74
2021/12/17 13:30:38;;;;;;;9.33;6.17;;;9.70;99.90;;;;;;10349254;28;20276;-73
2021/12/17 13:35:38;;;;;;;8.43;6.37;;;9.70;99.90;;;;;;10354565;28;20242;-74
2021/12/17 13:40:39;;;;;;;8.80;5.67;;;9.50;99.90;;;;;;10354447;28;20277;-74
2021/12/17 13:45:46;;;;;;;8.33;5.10;;;9.40;99.90;;;;;;10353450;28;20235;-73
2021/12/17 13:50:50;;;;;;;9.40;5.73;;;9.30;99.90;;;;;;10348476;28;20278;-73
2021/12/17 13:55:51;;;;;;;8.93;5.93;;;9.10;99.90;;;;;;10351488;28;20283;-73
2021/12/17 14:00:57;;;;;;;10.00;6.40;;;9.10;99.90;;;;;;10354896;28;20273;-72
2021/12/17 14:06:09;;;;;;;10.13;6.70;;;9.10;99.90;;;;;;10355117;28;20235;-73
2021/12/17 14:11:27;;;;;;;10.23;7.23;;;9.00;99.90;;;;;;10342201;28;20234;-75
2021/12/17 14:16:30;;;;;;;14.37;7.40;;;9.00;99.90;;;;;;10346956;28;20228;-74
2021/12/17 14:21:32;;;;;;;10.47;7.17;;;9.00;99.90;;;;;;10345314;28;20613;-74
2021/12/17 14:26:33;;;;;;;11.37;7.43;;;9.00;99.90;;;;;;10346269;28;20325;-75
2021/12/17 14:31:34;;;;;;;9.80;6.60;;;9.00;99.90;;;;;;10354575;28;20706;-75
2021/12/17 14:36:38;;;;;;;8.63;6.60;;;8.90;99.90;;;;;;10351591;28;20310;-75
2021/12/17 14:41:58;;;;;;;8.07;5.90;;;8.80;99.90;;;;;;10346236;28;20234;-74
2021/12/17 14:47:26;;;;;;;10.20;6.43;;;8.80;99.90;;;;;;10348955;28;20366;-75
2021/12/17 15:03:18;;;;;;;8.90;6.13;;;8.70;99.90;;;;;;10358316;28;20238;-76
2021/12/17 15:08:19;;;;;;;8.47;5.83;;;8.70;99.90;;;;;;10343805;28;20238;-75
2021/12/17 15:13:20;;;;;;;7.50;6.17;;;8.70;99.90;;;;;;10343273;28;20241;-75
2021/12/17 15:18:21;;;;;;;10.03;6.80;;;8.70;99.90;;;;;;10350250;28;20228;-76
2021/12/17 15:23:25;;;;;;;11.23;6.10;;;8.70;99.90;;;;;;10351249;28;20304;-74
2021/12/17 15:28:27;;;;;;;11.77;6.00;;;8.70;99.90;;;;;;10345584;28;20307;-75
2021/12/17 15:33:28;;;;;;;8.50;6.07;;;8.60;99.90;;;;;;10347733;28;20704;-76
2021/12/17 15:38:29;;;;;;;9.63;6.10;;;8.60;99.90;;;;;;10354186;28;20215;-76
2021/12/17 15:43:30;;;;;;;9.40;6.10;;;8.60;99.90;;;;;;10360004;28;20232;-75
2021/12/17 15:48:31;;;;;;;9.00;5.83;;;8.60;99.90;;;;;;10370711;28;20225;-76
2021/12/17 15:53:33;;;;;;;10.33;6.10;;;8.60;99.90;;;;;;10351741;28;20218;-73
2021/12/17 15:58:33;;;;;;;9.37;6.07;;;8.60;99.90;;;;;;10364539;28;20234;-74
2021/12/17 16:03:36;;;;;;;11.07;6.53;;;8.50;99.90;;;;;;10351810;28;20325;-74
2021/12/17 16:08:43;;;;;;;9.40;6.57;;;8.50;99.90;;;;;;10348219;28;20208;-76
2021/12/17 16:24:23;;;;;;;12.57;7.27;;;8.60;99.90;;;;;;10349150;28;20219;-75
2021/12/17 16:29:24;;;;;;;9.77;7.20;;;8.60;99.90;;;;;;10347227;28;20225;-75
2021/12/17 16:34:24;;;;;;;9.60;7.27;;;8.60;99.90;;;;;;10353475;28;20365;-75
2021/12/17 16:39:25;;;;;;;9.60;6.73;;;8.70;99.90;;;;;;10348588;28;20359;-75
2021/12/17 16:44:41;;;;;;;10.53;7.33;;;8.70;99.90;;;;;;10353890;28;20237;-75
2021/12/17 16:49:41;;;;;;;10.43;6.50;;;8.70;99.90;;;;;;10348223;28;20212;-75
2021/12/17 16:54:42;;;;;;;11.30;8.40;;;8.70;99.90;;;;;;10350964;28;20639;-75
2021/12/17 16:59:42;;;;;;;10.73;7.60;;;8.70;99.90;;;;;;10349975;28;20235;-75
2021/12/17 17:04:44;;;;;;;13.57;9.93;;;8.70;99.90;;;;;;10359483;28;20291;-75
2021/12/17 17:09:44;;;;;;;19.60;12.20;;;8.70;99.90;;;;;;10365294;28;20227;-75
2021/12/17 17:14:45;;;;;;;20.63;13.00;;;8.70;99.90;;;;;;10356252;28;20223;-75
2021/12/17 17:19:45;;;;;;;14.00;9.33;;;8.60;99.90;;;;;;10351709;28;20229;-75
2021/12/17 17:24:46;;;;;;;25.00;12.70;;;8.60;99.90;;;;;;10347100;28;20228;-74
2021/12/17 17:29:48;;;;;;;17.20;11.27;;;8.60;99.90;;;;;;10352385;28;20634;-74
2021/12/17 17:34:49;;;;;;;13.13;10.07;;;8.60;99.90;;;;;;10361835;28;20721;-76
2021/12/17 17:39:49;;;;;;;15.93;10.90;;;8.60;99.90;;;;;;10345511;28;20224;-75
2021/12/17 17:44:50;;;;;;;15.83;9.10;;;8.60;99.90;;;;;;10355414;28;20223;-74
2021/12/17 17:49:51;;;;;;;17.57;11.80;;;8.60;99.90;;;;;;10354824;28;20217;-75
2021/12/17 17:54:52;;;;;;;15.57;11.50;;;8.60;99.90;;;;;;10345444;28;20686;-75
2021/12/17 17:59:52;;;;;;;13.53;9.83;;;8.60;99.90;;;;;;10350724;28;20579;-75
2021/12/17 18:04:53;;;;;;;11.77;8.10;;;8.60;99.90;;;;;;10349978;28;20617;-75
2021/12/17 18:09:53;;;;;;;9.93;6.80;;;8.60;99.90;;;;;;10342528;28;20242;-76
2021/12/17 18:14:54;;;;;;;10.13;6.83;;;8.60;99.90;;;;;;10355365;28;20776;-76
2021/12/17 18:19:55;;;;;;;8.73;6.40;;;8.50;99.90;;;;;;10342456;28;20225;-75
2021/12/17 18:24:55;;;;;;;9.93;6.60;;;8.50;99.90;;;;;;10346207;28;20644;-75
2021/12/17 18:30:05;;;;;;;9.93;6.40;;;8.50;99.90;;;;;;10340292;28;20226;-76
2021/12/17 18:35:07;;;;;;;10.17;7.17;;;8.50;99.90;;;;;;10356192;28;20631;-75
2021/12/17 18:40:14;;;;;;;10.37;7.07;;;8.40;99.90;;;;;;10341037;28;20232;-74
2021/12/17 18:45:21;;;;;;;10.17;7.00;;;8.30;99.90;;;;;;10354110;28;20309;-74
2021/12/17 18:50:22;;;;;;;9.70;7.27;;;8.30;99.90;;;;;;10342640;28;20185;-75
2021/12/17 18:55:22;;;;;;;9.57;7.10;;;8.30;99.90;;;;;;10346718;28;20270;-75
2021/12/17 19:00:23;;;;;;;12.80;8.93;;;8.20;99.90;;;;;;10338516;28;20227;-75
2021/12/17 19:05:24;;;;;;;13.63;8.93;;;7.90;99.90;;;;;;10358328;28;20228;-75
2021/12/17 19:10:25;;;;;;;13.00;9.37;;;7.70;99.90;;;;;;10353041;28;20232;-73
2021/12/17 19:15:26;;;;;;;14.53;9.20;;;7.60;99.90;;;;;;10342621;28;20284;-74
2021/12/17 19:20:31;;;;;;;14.13;9.67;;;7.30;99.90;;;;;;10339107;28;20226;-76
2021/12/17 19:25:34;;;;;;;12.77;9.47;;;7.10;99.90;;;;;;10352263;28;20313;-75
2021/12/17 19:30:36;;;;;;;15.47;10.17;;;6.90;99.90;;;;;;10351656;28;20217;-75
2021/12/17 19:35:36;;;;;;;13.83;9.97;;;6.70;99.90;;;;;;10357445;28;20225;-74
2021/12/17 19:40:37;;;;;;;16.93;10.17;;;6.60;99.90;;;;;;10357939;28;20228;-75
2021/12/17 19:45:38;;;;;;;15.13;10.67;;;6.50;99.90;;;;;;10352420;28;20229;-75
2021/12/17 19:50:40;;;;;;;17.47;11.17;;;6.30;99.90;;;;;;10353082;28;20316;-75
2021/12/17 19:55:44;;;;;;;20.47;14.17;;;6.10;99.90;;;;;;10353446;28;20869;-75
2021/12/17 20:00:49;;;;;;;18.10;13.37;;;6.10;99.90;;;;;;10354519;28;20723;-74
2021/12/17 20:05:50;;;;;;;20.53;13.57;;;6.00;99.90;;;;;;10353290;28;20871;-75
2021/12/17 20:10:51;;;;;;;18.13;12.63;;;5.90;99.90;;;;;;10348848;28;20312;-74
2021/12/17 20:15:54;;;;;;;18.70;13.73;;;5.80;99.90;;;;;;10355321;28;20228;-75
2021/12/17 20:21:04;;;;;;;17.53;13.27;;;5.80;99.90;;;;;;10354525;28;20248;-76
2021/12/17 20:26:06;;;;;;;20.40;13.57;;;5.70;99.90;;;;;;10354723;28;20229;-74
2021/12/17 20:31:08;;;;;;;18.40;13.13;;;5.60;99.90;;;;;;10346200;28;20214;-75
2021/12/17 20:36:09;;;;;;;18.03;12.33;;;5.50;99.90;;;;;;10354762;28;20577;-75
2021/12/17 20:41:10;;;;;;;20.00;13.67;;;5.40;99.90;;;;;;10363984;28;20297;-75
2021/12/17 20:46:13;;;;;;;20.67;13.60;;;5.40;99.90;;;;;;10380245;28;20263;-77
2021/12/17 20:51:16;;;;;;;18.70;13.23;;;5.30;99.90;;;;;;10374363;28;20221;-77
2021/12/17 20:56:17;;;;;;;19.90;12.93;;;5.20;99.90;;;;;;10365925;28;21029;-75
2021/12/17 21:01:17;;;;;;;19.57;13.73;;;5.20;99.90;;;;;;10372067;28;20221;-77
2021/12/17 21:06:18;;;;;;;19.17;13.20;;;5.10;99.90;;;;;;10358238;28;20244;-76
2021/12/17 21:11:19;;;;;;;20.93;14.73;;;5.10;99.90;;;;;;10362393;28;20692;-74
2021/12/17 21:16:20;;;;;;;22.80;15.63;;;5.00;99.90;;;;;;10353386;28;20232;-76
2021/12/17 21:21:22;;;;;;;20.10;14.37;;;5.00;99.90;;;;;;10348784;28;20700;-77
2021/12/17 21:26:22;;;;;;;21.17;14.63;;;4.90;99.90;;;;;;10363460;28;20348;-75
2021/12/17 21:31:23;;;;;;;21.80;15.50;;;4.90;99.90;;;;;;10347796;28;20260;-76
2021/12/17 21:36:24;;;;;;;18.07;13.03;;;4.90;99.90;;;;;;10354393;28;20299;-76
2021/12/17 21:41:25;;;;;;;22.43;12.80;;;4.80;99.90;;;;;;10348561;28;20228;-76
2021/12/17 21:46:29;;;;;;;18.57;13.13;;;4.70;99.90;;;;;;10360721;28;20229;-76
2021/12/17 21:51:30;;;;;;;19.33;12.97;;;4.70;99.90;;;;;;10355153;28;20225;-75
2021/12/17 21:56:31;;;;;;;19.30;12.67;;;4.60;99.90;;;;;;10366107;28;20584;-75
2021/12/17 22:01:32;;;;;;;19.57;12.47;;;4.60;99.90;;;;;;10356587;28;20716;-75
2021/12/17 22:06:36;;;;;;;19.20;12.30;;;4.50;99.90;;;;;;10353318;28;20287;-75
2021/12/17 22:11:37;;;;;;;14.57;11.07;;;4.50;99.90;;;;;;10352615;28;20272;-76
2021/12/17 22:16:38;;;;;;;17.97;10.93;;;4.40;99.90;;;;;;10355540;28;20275;-76
2021/12/17 22:21:45;;;;;;;16.13;12.10;;;4.40;99.90;;;;;;10355229;28;20226;-76
2021/12/17 22:26:45;;;;;;;17.67;11.67;;;4.40;99.90;;;;;;10350844;28;20248;-76
2021/12/17 22:31:46;;;;;;;20.33;12.53;;;4.30;99.90;;;;;;10348643;28;20694;-75
2021/12/17 22:36:47;;;;;;;17.43;11.60;;;4.30;99.90;;;;;;10363282;28;20681;-75
2021/12/17 22:41:54;;;;;;;18.60;12.13;;;4.20;99.90;;;;;;10355925;28;20235;-76
2021/12/17 22:46:55;;;;;;;15.43;11.40;;;4.20;99.90;;;;;;10345117;28;20238;-75
2021/12/17 22:51:55;;;;;;;17.53;11.30;;;4.10;99.90;;;;;;10356404;28;20217;-75
2021/12/17 22:56:56;;;;;;;17.03;12.00;;;4.10;99.90;;;;;;10355854;28;20233;-75
2021/12/17 23:01:57;;;;;;;15.20;10.33;;;4.00;99.90;;;;;;10358055;28;20231;-76
2021/12/17 23:07:08;;;;;;;18.13;11.70;;;4.00;99.90;;;;;;10343865;28;20309;-75
2021/12/17 23:12:17;;;;;;;16.63;10.53;;;3.90;99.90;;;;;;10342434;28;20245;-75
2021/12/17 23:17:21;;;;;;;17.87;11.07;;;3.90;99.90;;;;;;10347915;28;20300;-75
2021/12/17 23:22:24;;;;;;;19.17;11.90;;;3.90;99.90;;;;;;10342931;28;20662;-76
2021/12/17 23:27:25;;;;;;;19.67;12.13;;;3.80;99.90;;;;;;10346312;28;20272;-75
2021/12/17 23:32:33;;;;;;;17.63;12.17;;;3.80;99.90;;;;;;10349700;28;20217;-76
2021/12/17 23:37:33;;;;;;;20.50;12.90;;;3.80;99.90;;;;;;10349872;28;20333;-75
2021/12/17 23:42:34;;;;;;;19.97;12.90;;;3.70;99.90;;;;;;10354253;28;20322;-76
2021/12/17 23:47:35;;;;;;;19.50;13.00;;;3.70;99.90;;;;;;10353153;28;20221;-76
2021/12/17 23:52:36;;;;;;;19.43;12.40;;;3.60;99.90;;;;;;10356633;28;20701;-75
2021/12/17 23:57:36;;;;;;;20.97;12.40;;;3.60;99.90;;;;;;10353359;28;20324;-75
